Terminal Aerodrome Forecast
Issued by NWS Atlanta, GA

Home | Current Version | Previous Version | Text Only | Print | Product List | Glossary On
Versions: 1 2 3 4 5 6 7 8 9 10 11 12 13 14 15
000
FTUS42 KFFC 121730
TAFMCN
TAF
KMCN 121730Z 1218/1318 31016G29KT P6SM FEW040
     FM122300 31012G20KT P6SM SKC
     FM130300 31009KT P6SM SKC
     FM130600 31007KT P6SM SKC
     FM131500 30005KT P6SM FEW250=

USA.gov is the U.S. government's official web portal to all federal, state and local government web resources and services.